Terminal Aerodrome Forecast
Issued by NWS

Home | Current Version | Previous Version | Text Only | Print | Product List | Glossary On
Versions: 1 2 3 4 5 6 7 8 9 10 11 12 13
000
FTUS42 TJSJ 161141
TAFIST
TAF
TIST 161141Z 1612/1712 05012G20KT P6SM -RA SCT025 SCT040 SCT060
      TEMPO 1612/1614 VRB15G25KT 5SM SHRA BKN025 BKN040
     FM161430 07015G25KT P6SM SCT030 SCT060
     FM162300 06010KT P6SM VCSH SCT025=

USA.gov is the U.S. government's official web portal to all federal, state and local government web resources and services.